Gordonsville, Kentucky
Current Conditions -  °F | °C
As of 6:53 AM on Friday 24 Oct 2014 (Local Time) from KBWG Reporting Station
Moderate Fog Moderate Fog  
Wind Chill: 42°   Ceiling: 200
Heat Index: 42°   Visibility: 0.25mi
Dew Point: 40°   Wind: 0mph
Humidity: 92%   Direction: NA
Pressure: 30.14"   Gusts: NA
Location:  36.8547°N, 86.8859°W
Report Text: KBWG 241153Z AUTO 00000KT 1/4SM FG VV002 06/04 A3014 RMK AO2 SLP207 T00560044 10094 20044 51008
Loading
Personal Weather Stations






























Interactive Weather Map
Tropical Storm Tracking
New forecast layout! Learn more

10-Day Weather Forecast

Advertisements
Track Severe Weather on mobile